sensor_id;sensor_type;location;lat;lon;timestamp;pressure;altitude;pressure_sealevel;temperature;humidity
10115;BME280;5097;43.260;27.812;2022-08-03T00:00:49;99995.19;;;21.85;64.25
10115;BME280;5097;43.260;27.812;2022-08-03T00:03:33;99987.03;;;21.76;64.26
10115;BME280;5097;43.260;27.812;2022-08-03T00:06:17;100010.31;;;21.86;64.47
10115;BME280;5097;43.260;27.812;2022-08-03T00:09:03;100013.31;;;21.83;64.42
10115;BME280;5097;43.260;27.812;2022-08-03T00:11:47;99995.44;;;21.73;64.20
10115;BME280;5097;43.260;27.812;2022-08-03T00:14:32;99991.31;;;21.61;64.64
10115;BME280;5097;43.260;27.812;2022-08-03T00:17:16;100011.50;;;21.65;64.92
10115;BME280;5097;43.260;27.812;2022-08-03T00:20:00;100002.06;;;21.61;64.97
10115;BME280;5097;43.260;27.812;2022-08-03T00:22:44;100005.53;;;21.53;65.20
10115;BME280;5097;43.260;27.812;2022-08-03T00:25:29;100004.28;;;21.48;65.25
10115;BME280;5097;43.260;27.812;2022-08-03T00:28:13;99998.31;;;21.54;65.27
10115;BME280;5097;43.260;27.812;2022-08-03T00:30:57;99995.63;;;21.54;64.86
10115;BME280;5097;43.260;27.812;2022-08-03T00:33:41;99986.03;;;21.33;65.54
10115;BME280;5097;43.260;27.812;2022-08-03T00:36:41;99993.09;;;21.34;65.58
10115;BME280;5097;43.260;27.812;2022-08-03T00:39:25;99984.16;;;21.34;65.30
10115;BME280;5097;43.260;27.812;2022-08-03T00:42:10;99966.44;;;21.23;65.10
10115;BME280;5097;43.260;27.812;2022-08-03T00:44:55;99964.69;;;21.32;64.62
10115;BME280;5097;43.260;27.812;2022-08-03T00:47:39;99972.91;;;21.30;64.88
10115;BME280;5097;43.260;27.812;2022-08-03T00:50:24;99978.94;;;21.32;64.96
10115;BME280;5097;43.260;27.812;2022-08-03T00:53:10;99988.47;;;21.45;64.77
10115;BME280;5097;43.260;27.812;2022-08-03T00:55:55;99963.75;;;21.41;64.82
10115;BME280;5097;43.260;27.812;2022-08-03T00:58:42;100009.81;;;21.64;64.59
10115;BME280;5097;43.260;27.812;2022-08-03T01:01:27;99998.53;;;21.60;64.38
10115;BME280;5097;43.260;27.812;2022-08-03T01:04:14;100004.13;;;21.67;64.19
10115;BME280;5097;43.260;27.812;2022-08-03T01:07:06;99980.47;;;21.53;64.14
10115;BME280;5097;43.260;27.812;2022-08-03T01:09:59;100001.44;;;21.49;64.67
10115;BME280;5097;43.260;27.812;2022-08-03T01:12:53;99976.19;;;21.60;64.21
10115;BME280;5097;43.260;27.812;2022-08-03T01:15:45;99963.13;;;21.65;63.74
10115;BME280;5097;43.260;27.812;2022-08-03T01:18:38;100004.75;;;21.61;64.34
10115;BME280;5097;43.260;27.812;2022-08-03T01:21:26;99968.84;;;21.26;64.68
10115;BME280;5097;43.260;27.812;2022-08-03T01:24:21;99967.59;;;21.38;64.69
10115;BME280;5097;43.260;27.812;2022-08-03T01:27:17;99964.53;;;21.33;64.92
10115;BME280;5097;43.260;27.812;2022-08-03T01:30:07;99966.38;;;21.15;65.31
10115;BME280;5097;43.260;27.812;2022-08-03T01:32:54;99983.34;;;21.33;65.23
10115;BME280;5097;43.260;27.812;2022-08-03T01:35:47;99999.31;;;21.17;66.05
10115;BME280;5097;43.260;27.812;2022-08-03T01:38:35;100001.91;;;21.26;66.50
10115;BME280;5097;43.260;27.812;2022-08-03T01:41:24;99997.91;;;21.31;65.33
10115;BME280;5097;43.260;27.812;2022-08-03T01:44:12;99961.25;;;21.03;65.22
10115;BME280;5097;43.260;27.812;2022-08-03T01:47:14;99998.09;;;21.29;65.02
10115;BME280;5097;43.260;27.812;2022-08-03T01:50:00;99963.06;;;21.03;64.71
10115;BME280;5097;43.260;27.812;2022-08-03T01:52:46;99959.31;;;21.14;64.46
10115;BME280;5097;43.260;27.812;2022-08-03T01:55:31;99989.69;;;21.32;64.00
10115;BME280;5097;43.260;27.812;2022-08-03T01:58:19;99978.13;;;21.32;63.56
10115;BME280;5097;43.260;27.812;2022-08-03T02:01:05;99997.53;;;21.43;63.98
10115;BME280;5097;43.260;27.812;2022-08-03T02:03:54;99980.72;;;21.41;63.61
10115;BME280;5097;43.260;27.812;2022-08-03T02:06:44;99978.03;;;21.41;63.24
10115;BME280;5097;43.260;27.812;2022-08-03T02:09:49;99987.25;;;21.39;63.68
10115;BME280;5097;43.260;27.812;2022-08-03T02:12:34;99999.84;;;21.38;63.88
10115;BME280;5097;43.260;27.812;2022-08-03T02:15:21;99966.75;;;21.20;63.88
10115;BME280;5097;43.260;27.812;2022-08-03T02:18:07;100006.28;;;21.46;64.15
10115;BME280;5097;43.260;27.812;2022-08-03T02:20:54;100007.28;;;21.45;64.50
10115;BME280;5097;43.260;27.812;2022-08-03T02:23:39;99992.94;;;21.54;63.95
10115;BME280;5097;43.260;27.812;2022-08-03T02:26:28;100003.19;;;21.76;63.07
10115;BME280;5097;43.260;27.812;2022-08-03T02:29:19;99982.25;;;21.62;63.21
10115;BME280;5097;43.260;27.812;2022-08-03T02:32:26;99981.19;;;21.55;63.00
10115;BME280;5097;43.260;27.812;2022-08-03T02:35:14;99977.19;;;21.59;62.50
10115;BME280;5097;43.260;27.812;2022-08-03T02:38:04;100016.72;;;21.67;63.14
10115;BME280;5097;43.260;27.812;2022-08-03T02:40:50;100010.50;;;21.48;63.56
10115;BME280;5097;43.260;27.812;2022-08-03T02:43:36;99984.19;;;21.16;64.65
10115;BME280;5097;43.260;27.812;2022-08-03T02:46:45;100010.97;;;21.43;64.04
10115;BME280;5097;43.260;27.812;2022-08-03T02:49:31;100000.00;;;21.19;64.64
10115;BME280;5097;43.260;27.812;2022-08-03T02:52:32;100006.66;;;21.15;65.67
10115;BME280;5097;43.260;27.812;2022-08-03T02:55:20;100012.97;;;21.05;65.23
10115;BME280;5097;43.260;27.812;2022-08-03T02:58:05;100005.22;;;21.20;65.12
10115;BME280;5097;43.260;27.812;2022-08-03T03:00:51;100001.94;;;21.08;65.26
10115;BME280;5097;43.260;27.812;2022-08-03T03:03:36;100009.69;;;21.12;65.92
10115;BME280;5097;43.260;27.812;2022-08-03T03:06:26;100004.66;;;20.99;65.04
10115;BME280;5097;43.260;27.812;2022-08-03T03:09:12;99971.69;;;21.06;63.43
10115;BME280;5097;43.260;27.812;2022-08-03T03:11:57;100021.25;;;20.94;65.92
10115;BME280;5097;43.260;27.812;2022-08-03T03:14:42;100013.28;;;21.02;64.46
10115;BME280;5097;43.260;27.812;2022-08-03T03:17:26;100007.66;;;20.96;65.37
10115;BME280;5097;43.260;27.812;2022-08-03T03:20:11;100019.50;;;21.21;64.26
10115;BME280;5097;43.260;27.812;2022-08-03T03:22:57;100009.50;;;21.13;64.34
10115;BME280;5097;43.260;27.812;2022-08-03T03:25:42;100024.09;;;21.47;63.70
10115;BME280;5097;43.260;27.812;2022-08-03T03:28:28;99990.84;;;21.30;63.71
10115;BME280;5097;43.260;27.812;2022-08-03T03:31:13;100016.19;;;21.45;63.44
10115;BME280;5097;43.260;27.812;2022-08-03T03:33:57;100001.75;;;21.28;63.78
10115;BME280;5097;43.260;27.812;2022-08-03T03:36:41;100042.44;;;21.33;63.80
10115;BME280;5097;43.260;27.812;2022-08-03T03:39:25;100032.09;;;21.38;63.59
10115;BME280;5097;43.260;27.812;2022-08-03T03:42:09;100046.91;;;21.42;63.89
10115;BME280;5097;43.260;27.812;2022-08-03T03:44:55;100015.66;;;21.41;63.59
10115;BME280;5097;43.260;27.812;2022-08-03T03:47:40;100020.56;;;21.46;63.45
10115;BME280;5097;43.260;27.812;2022-08-03T03:50:25;100015.03;;;21.12;64.52
10115;BME280;5097;43.260;27.812;2022-08-03T03:53:10;100033.59;;;21.23;64.41
10115;BME280;5097;43.260;27.812;2022-08-03T03:55:55;100019.88;;;21.26;64.06
10115;BME280;5097;43.260;27.812;2022-08-03T03:58:44;100034.63;;;21.22;64.55
10115;BME280;5097;43.260;27.812;2022-08-03T04:01:30;100036.84;;;21.45;64.49
10115;BME280;5097;43.260;27.812;2022-08-03T04:04:14;100042.28;;;21.53;63.83
10115;BME280;5097;43.260;27.812;2022-08-03T04:07:14;100045.53;;;21.74;63.10
10115;BME280;5097;43.260;27.812;2022-08-03T04:10:19;100047.50;;;21.90;62.53
10115;BME280;5097;43.260;27.812;2022-08-03T04:13:22;100034.28;;;21.79;62.46
10115;BME280;5097;43.260;27.812;2022-08-03T04:16:10;100050.78;;;22.02;62.55
10115;BME280;5097;43.260;27.812;2022-08-03T04:19:00;100047.91;;;22.04;62.28
10115;BME280;5097;43.260;27.812;2022-08-03T04:21:49;100021.75;;;21.88;62.67
10115;BME280;5097;43.260;27.812;2022-08-03T04:24:40;100043.97;;;22.16;61.52
10115;BME280;5097;43.260;27.812;2022-08-03T04:27:29;100043.66;;;22.27;61.61
10115;BME280;5097;43.260;27.812;2022-08-03T04:30:15;100052.34;;;22.39;60.94
10115;BME280;5097;43.260;27.812;2022-08-03T04:33:00;100045.50;;;22.45;60.94
10115;BME280;5097;43.260;27.812;2022-08-03T04:35:46;100052.50;;;22.72;59.98
10115;BME280;5097;43.260;27.812;2022-08-03T04:38:54;99991.47;;;22.38;59.89
10115;BME280;5097;43.260;27.812;2022-08-03T04:41:40;100061.13;;;22.84;59.58
10115;BME280;5097;43.260;27.812;2022-08-03T04:44:47;100046.09;;;22.65;59.97
10115;BME280;5097;43.260;27.812;2022-08-03T04:47:32;100057.69;;;22.66;59.34
10115;BME280;5097;43.260;27.812;2022-08-03T04:50:16;100048.72;;;22.57;60.01
10115;BME280;5097;43.260;27.812;2022-08-03T04:53:20;100049.56;;;22.49;59.62
10115;BME280;5097;43.260;27.812;2022-08-03T04:56:05;100054.56;;;22.79;59.52
10115;BME280;5097;43.260;27.812;2022-08-03T04:58:49;100061.34;;;23.07;58.73
10115;BME280;5097;43.260;27.812;2022-08-03T05:01:33;100030.72;;;23.08;58.45
10115;BME280;5097;43.260;27.812;2022-08-03T05:04:17;100045.78;;;23.27;58.39
10115;BME280;5097;43.260;27.812;2022-08-03T05:07:02;100043.75;;;23.30;57.43
10115;BME280;5097;43.260;27.812;2022-08-03T05:09:55;100061.47;;;23.65;56.82
10115;BME280;5097;43.260;27.812;2022-08-03T05:12:46;99974.81;;;23.10;56.49
10115;BME280;5097;43.260;27.812;2022-08-03T05:15:33;100067.03;;;23.64;55.92
10115;BME280;5097;43.260;27.812;2022-08-03T05:18:24;100072.13;;;23.91;55.19
10115;BME280;5097;43.260;27.812;2022-08-03T05:21:08;100054.56;;;23.63;54.56
10115;BME280;5097;43.260;27.812;2022-08-03T05:23:55;100072.25;;;24.06;53.19
10115;BME280;5097;43.260;27.812;2022-08-03T05:26:40;100075.31;;;23.95;53.32
10115;BME280;5097;43.260;27.812;2022-08-03T05:29:24;100065.72;;;23.92;53.11
10115;BME280;5097;43.260;27.812;2022-08-03T05:32:08;100075.97;;;24.22;52.89
10115;BME280;5097;43.260;27.812;2022-08-03T05:34:52;100077.28;;;24.18;52.04
10115;BME280;5097;43.260;27.812;2022-08-03T05:37:36;100087.38;;;24.40;51.78
10115;BME280;5097;43.260;27.812;2022-08-03T05:40:36;100057.69;;;24.32;51.53
10115;BME280;5097;43.260;27.812;2022-08-03T05:43:29;100073.13;;;24.71;50.82
10115;BME280;5097;43.260;27.812;2022-08-03T05:46:17;100081.25;;;24.55;50.79
10115;BME280;5097;43.260;27.812;2022-08-03T05:49:02;100075.84;;;24.55;50.86
10115;BME280;5097;43.260;27.812;2022-08-03T05:51:46;100085.41;;;24.82;50.27
10115;BME280;5097;43.260;27.812;2022-08-03T05:54:41;100078.63;;;24.30;50.34
10115;BME280;5097;43.260;27.812;2022-08-03T05:57:39;100077.28;;;24.34;50.12
10115;BME280;5097;43.260;27.812;2022-08-03T06:00:27;100079.88;;;24.67;49.46
10115;BME280;5097;43.260;27.812;2022-08-03T06:03:12;100063.03;;;24.57;48.95
10115;BME280;5097;43.260;27.812;2022-08-03T06:05:56;100086.59;;;24.80;48.26
10115;BME280;5097;43.260;27.812;2022-08-03T06:08:43;100089.63;;;24.76;48.35
10115;BME280;5097;43.260;27.812;2022-08-03T06:11:27;100093.66;;;24.89;47.92
10115;BME280;5097;43.260;27.812;2022-08-03T06:14:11;100084.09;;;25.09;48.08
10115;BME280;5097;43.260;27.812;2022-08-03T06:16:56;100044.47;;;24.54;47.46
10115;BME280;5097;43.260;27.812;2022-08-03T06:19:40;100069.91;;;25.07;47.22
10115;BME280;5097;43.260;27.812;2022-08-03T06:22:24;100082.94;;;25.35;47.20
10115;BME280;5097;43.260;27.812;2022-08-03T06:25:08;100070.03;;;25.46;46.62
10115;BME280;5097;43.260;27.812;2022-08-03T06:27:55;100089.38;;;25.26;45.91
10115;BME280;5097;43.260;27.812;2022-08-03T06:30:41;100091.88;;;25.04;45.58
10115;BME280;5097;43.260;27.812;2022-08-03T06:33:26;100099.34;;;25.02;46.35
10115;BME280;5097;43.260;27.812;2022-08-03T06:36:30;100066.56;;;25.29;45.30
10115;BME280;5097;43.260;27.812;2022-08-03T06:39:14;100084.81;;;25.58;44.49
10115;BME280;5097;43.260;27.812;2022-08-03T06:41:58;100095.16;;;25.77;44.84
10115;BME280;5097;43.260;27.812;2022-08-03T06:44:42;100077.91;;;25.55;43.96
10115;BME280;5097;43.260;27.812;2022-08-03T06:47:26;100072.84;;;25.29;44.88
10115;BME280;5097;43.260;27.812;2022-08-03T06:50:13;100050.28;;;25.14;44.61
10115;BME280;5097;43.260;27.812;2022-08-03T06:53:01;100089.75;;;25.77;43.76
10115;BME280;5097;43.260;27.812;2022-08-03T06:55:44;100092.38;;;26.24;42.94
10115;BME280;5097;43.260;27.812;2022-08-03T06:58:35;100100.41;;;25.94;43.33
10115;BME280;5097;43.260;27.812;2022-08-03T07:01:19;100088.34;;;25.82;43.46
10115;BME280;5097;43.260;27.812;2022-08-03T07:04:03;100076.59;;;26.13;42.90
10115;BME280;5097;43.260;27.812;2022-08-03T07:06:49;100104.06;;;26.01;42.48
10115;BME280;5097;43.260;27.812;2022-08-03T07:09:33;100101.34;;;26.09;42.04
10115;BME280;5097;43.260;27.812;2022-08-03T07:12:17;100093.84;;;26.12;41.48
10115;BME280;5097;43.260;27.812;2022-08-03T07:15:03;100084.81;;;26.49;41.79
10115;BME280;5097;43.260;27.812;2022-08-03T07:17:47;100091.53;;;26.53;41.81
10115;BME280;5097;43.260;27.812;2022-08-03T07:20:31;100095.78;;;26.86;41.18
10115;BME280;5097;43.260;27.812;2022-08-03T07:23:16;100092.88;;;26.87;40.86
10115;BME280;5097;43.260;27.812;2022-08-03T07:26:00;100095.72;;;27.16;40.75
10115;BME280;5097;43.260;27.812;2022-08-03T07:28:44;100086.16;;;27.20;39.29
10115;BME280;5097;43.260;27.812;2022-08-03T07:31:28;100105.69;;;26.79;39.99
10115;BME280;5097;43.260;27.812;2022-08-03T07:34:15;100102.69;;;26.73;40.91
10115;BME280;5097;43.260;27.812;2022-08-03T07:36:59;100100.63;;;26.60;40.52
10115;BME280;5097;43.260;27.812;2022-08-03T07:39:45;100111.66;;;26.59;39.58
10115;BME280;5097;43.260;27.812;2022-08-03T07:42:29;100110.50;;;26.68;38.80
10115;BME280;5097;43.260;27.812;2022-08-03T07:45:14;100085.19;;;26.61;39.09
10115;BME280;5097;43.260;27.812;2022-08-03T07:47:58;100074.84;;;26.50;38.88
10115;BME280;5097;43.260;27.812;2022-08-03T07:50:42;100101.47;;;26.76;38.50
10115;BME280;5097;43.260;27.812;2022-08-03T07:53:26;100130.16;;;26.85;38.00
10115;BME280;5097;43.260;27.812;2022-08-03T07:56:11;100110.25;;;26.93;38.83
10115;BME280;5097;43.260;27.812;2022-08-03T07:58:55;100116.22;;;27.03;37.30
10115;BME280;5097;43.260;27.812;2022-08-03T08:01:39;100092.84;;;27.02;37.88
10115;BME280;5097;43.260;27.812;2022-08-03T08:04:23;100113.50;;;27.03;38.24
10115;BME280;5097;43.260;27.812;2022-08-03T08:07:07;100116.38;;;27.17;37.65
10115;BME280;5097;43.260;27.812;2022-08-03T08:09:51;100108.63;;;26.99;37.78
10115;BME280;5097;43.260;27.812;2022-08-03T08:12:37;100117.09;;;27.25;37.41
10115;BME280;5097;43.260;27.812;2022-08-03T08:15:21;100095.97;;;27.21;37.48
10115;BME280;5097;43.260;27.812;2022-08-03T08:18:05;100107.78;;;27.13;37.46
10115;BME280;5097;43.260;27.812;2022-08-03T08:20:50;100124.91;;;27.35;37.02
10115;BME280;5097;43.260;27.812;2022-08-03T08:23:34;100108.94;;;27.40;36.71
10115;BME280;5097;43.260;27.812;2022-08-03T08:26:25;100113.75;;;27.60;36.61
10115;BME280;5097;43.260;27.812;2022-08-03T08:29:10;100077.03;;;27.42;36.59
10115;BME280;5097;43.260;27.812;2022-08-03T08:31:54;100121.59;;;27.55;36.73
10115;BME280;5097;43.260;27.812;2022-08-03T08:34:39;100120.75;;;27.98;36.56
10115;BME280;5097;43.260;27.812;2022-08-03T08:37:23;100123.00;;;28.16;35.94
10115;BME280;5097;43.260;27.812;2022-08-03T08:40:07;100119.66;;;27.92;36.13
10115;BME280;5097;43.260;27.812;2022-08-03T08:42:52;100122.41;;;27.70;35.99
10115;BME280;5097;43.260;27.812;2022-08-03T08:45:42;100117.16;;;28.12;35.84
10115;BME280;5097;43.260;27.812;2022-08-03T08:48:29;100106.97;;;27.99;35.40
10115;BME280;5097;43.260;27.812;2022-08-03T08:51:13;100101.91;;;27.89;35.48
10115;BME280;5097;43.260;27.812;2022-08-03T08:54:01;100109.72;;;28.27;35.27
10115;BME280;5097;43.260;27.812;2022-08-03T08:56:46;100121.91;;;28.38;34.07
10115;BME280;5097;43.260;27.812;2022-08-03T08:59:31;100113.66;;;28.25;34.43
10115;BME280;5097;43.260;27.812;2022-08-03T09:02:31;100112.03;;;28.59;33.47
10115;BME280;5097;43.260;27.812;2022-08-03T09:05:17;100104.84;;;28.45;33.28
10115;BME280;5097;43.260;27.812;2022-08-03T09:08:23;100107.22;;;28.61;33.83
10115;BME280;5097;43.260;27.812;2022-08-03T09:11:06;100116.00;;;28.28;33.52
10115;BME280;5097;43.260;27.812;2022-08-03T09:13:53;100115.69;;;28.45;32.45
10115;BME280;5097;43.260;27.812;2022-08-03T09:16:37;100109.81;;;28.41;31.67
10115;BME280;5097;43.260;27.812;2022-08-03T09:19:23;100122.91;;;28.59;32.02
10115;BME280;5097;43.260;27.812;2022-08-03T09:22:08;100115.22;;;28.69;32.06
10115;BME280;5097;43.260;27.812;2022-08-03T09:24:55;100101.28;;;28.44;31.92
10115;BME280;5097;43.260;27.812;2022-08-03T09:28:08;100095.78;;;28.66;33.06
10115;BME280;5097;43.260;27.812;2022-08-03T09:30:57;100100.91;;;28.89;30.74
10115;BME280;5097;43.260;27.812;2022-08-03T09:33:46;100088.13;;;28.83;31.07
10115;BME280;5097;43.260;27.812;2022-08-03T09:36:36;100119.53;;;28.57;31.29
10115;BME280;5097;43.260;27.812;2022-08-03T09:39:21;100106.09;;;28.49;32.04
10115;BME280;5097;43.260;27.812;2022-08-03T09:42:23;100082.22;;;28.37;32.04
10115;BME280;5097;43.260;27.812;2022-08-03T09:45:24;100101.31;;;28.86;32.09
10115;BME280;5097;43.260;27.812;2022-08-03T09:48:23;100098.38;;;28.81;31.48
10115;BME280;5097;43.260;27.812;2022-08-03T09:51:07;100083.31;;;28.85;31.52
10115;BME280;5097;43.260;27.812;2022-08-03T09:54:12;100076.19;;;28.84;30.68
10115;BME280;5097;43.260;27.812;2022-08-03T09:57:08;100089.16;;;29.37;30.66
10115;BME280;5097;43.260;27.812;2022-08-03T10:00:07;99971.88;;;28.98;28.99
10115;BME280;5097;43.260;27.812;2022-08-03T10:03:03;100097.84;;;29.94;29.04
10115;BME280;5097;43.260;27.812;2022-08-03T10:05:47;100061.16;;;29.50;30.20
10115;BME280;5097;43.260;27.812;2022-08-03T10:08:31;100077.66;;;29.41;30.26
10115;BME280;5097;43.260;27.812;2022-08-03T10:11:28;100094.84;;;28.87;30.21
10115;BME280;5097;43.260;27.812;2022-08-03T10:14:12;100087.19;;;29.17;30.80
10115;BME280;5097;43.260;27.812;2022-08-03T10:17:01;100084.81;;;29.69;29.59
10115;BME280;5097;43.260;27.812;2022-08-03T10:19:44;100076.72;;;29.14;30.52
10115;BME280;5097;43.260;27.812;2022-08-03T10:22:31;100083.34;;;29.73;29.73
10115;BME280;5097;43.260;27.812;2022-08-03T10:25:16;100075.56;;;29.30;28.88
10115;BME280;5097;43.260;27.812;2022-08-03T10:28:03;100085.56;;;29.23;29.38
10115;BME280;5097;43.260;27.812;2022-08-03T10:30:51;100070.13;;;29.37;29.81
10115;BME280;5097;43.260;27.812;2022-08-03T10:33:38;100078.53;;;29.49;29.35
10115;BME280;5097;43.260;27.812;2022-08-03T10:36:35;100051.63;;;29.19;29.56
10115;BME280;5097;43.260;27.812;2022-08-03T10:39:21;100070.78;;;29.72;28.61
10115;BME280;5097;43.260;27.812;2022-08-03T10:42:06;100063.03;;;29.76;29.53
10115;BME280;5097;43.260;27.812;2022-08-03T10:45:03;100036.44;;;29.71;29.38
10115;BME280;5097;43.260;27.812;2022-08-03T10:47:47;100055.06;;;30.15;28.41
10115;BME280;5097;43.260;27.812;2022-08-03T10:50:32;100064.28;;;30.14;29.14
10115;BME280;5097;43.260;27.812;2022-08-03T10:53:33;100047.56;;;29.70;29.66
10115;BME280;5097;43.260;27.812;2022-08-03T10:56:37;100066.38;;;29.45;29.52
10115;BME280;5097;43.260;27.812;2022-08-03T10:59:59;100025.06;;;29.21;29.89
10115;BME280;5097;43.260;27.812;2022-08-03T11:03:04;100032.66;;;29.99;28.24
10115;BME280;5097;43.260;27.812;2022-08-03T11:05:50;100057.19;;;29.86;28.51
10115;BME280;5097;43.260;27.812;2022-08-03T11:08:35;100036.25;;;29.66;28.58
10115;BME280;5097;43.260;27.812;2022-08-03T11:11:25;100049.66;;;30.01;27.76
10115;BME280;5097;43.260;27.812;2022-08-03T11:14:12;100047.50;;;30.50;28.05
10115;BME280;5097;43.260;27.812;2022-08-03T11:17:07;100050.47;;;30.02;29.33
10115;BME280;5097;43.260;27.812;2022-08-03T11:19:55;100054.25;;;29.81;29.85
10115;BME280;5097;43.260;27.812;2022-08-03T11:22:47;100036.25;;;30.06;28.84
10115;BME280;5097;43.260;27.812;2022-08-03T11:28:49;100035.41;;;29.86;28.21
10115;BME280;5097;43.260;27.812;2022-08-03T11:31:45;100014.47;;;29.73;28.68
10115;BME280;5097;43.260;27.812;2022-08-03T11:38:09;100033.31;;;30.01;27.61
10115;BME280;5097;43.260;27.812;2022-08-03T11:40:53;100027.84;;;29.81;28.00
10115;BME280;5097;43.260;27.812;2022-08-03T11:43:44;100018.19;;;30.12;28.18
10115;BME280;5097;43.260;27.812;2022-08-03T11:46:36;100012.69;;;30.32;27.47
10115;BME280;5097;43.260;27.812;2022-08-03T11:49:20;100018.66;;;30.02;28.51
10115;BME280;5097;43.260;27.812;2022-08-03T11:52:07;99989.94;;;30.00;28.26
10115;BME280;5097;43.260;27.812;2022-08-03T11:54:51;99998.06;;;30.20;28.53
10115;BME280;5097;43.260;27.812;2022-08-03T11:57:38;99975.47;;;29.99;28.70
10115;BME280;5097;43.260;27.812;2022-08-03T12:00:42;100010.03;;;30.78;27.48
10115;BME280;5097;43.260;27.812;2022-08-03T12:03:31;100005.88;;;30.68;27.67
10115;BME280;5097;43.260;27.812;2022-08-03T12:06:16;100006.59;;;30.89;27.34
10115;BME280;5097;43.260;27.812;2022-08-03T12:09:14;100017.19;;;31.42;26.64
10115;BME280;5097;43.260;27.812;2022-08-03T12:11:58;100011.59;;;30.99;25.81
10115;BME280;5097;43.260;27.812;2022-08-03T12:14:46;100009.63;;;31.45;26.53
10115;BME280;5097;43.260;27.812;2022-08-03T12:17:33;100004.50;;;30.91;27.07
10115;BME280;5097;43.260;27.812;2022-08-03T12:20:20;99995.56;;;31.16;26.74
10115;BME280;5097;43.260;27.812;2022-08-03T12:23:17;100000.03;;;31.35;26.48
10115;BME280;5097;43.260;27.812;2022-08-03T12:26:03;100009.28;;;31.34;27.14
10115;BME280;5097;43.260;27.812;2022-08-03T12:28:49;100005.69;;;31.40;26.37
10115;BME280;5097;43.260;27.812;2022-08-03T12:31:34;99999.41;;;31.33;26.68
10115;BME280;5097;43.260;27.812;2022-08-03T12:34:18;100008.59;;;31.14;31.18
10115;BME280;5097;43.260;27.812;2022-08-03T12:37:04;99994.78;;;31.02;38.16
10115;BME280;5097;43.260;27.812;2022-08-03T12:40:08;100000.50;;;30.55;39.53
10115;BME280;5097;43.260;27.812;2022-08-03T12:43:09;99985.78;;;31.01;37.94
10115;BME280;5097;43.260;27.812;2022-08-03T12:46:11;100002.25;;;31.20;34.87
10115;BME280;5097;43.260;27.812;2022-08-03T12:49:06;100000.22;;;31.08;28.19
10115;BME280;5097;43.260;27.812;2022-08-03T12:51:58;100007.88;;;30.86;38.22
10115;BME280;5097;43.260;27.812;2022-08-03T12:55:06;99983.53;;;30.39;40.17
10115;BME280;5097;43.260;27.812;2022-08-03T12:57:51;99977.78;;;30.02;41.29
10115;BME280;5097;43.260;27.812;2022-08-03T13:00:36;99995.31;;;30.33;40.90
10115;BME280;5097;43.260;27.812;2022-08-03T13:03:23;99992.66;;;30.06;41.53
10115;BME280;5097;43.260;27.812;2022-08-03T13:06:24;99997.03;;;30.21;40.92
10115;BME280;5097;43.260;27.812;2022-08-03T13:09:08;99995.13;;;29.14;43.56
10115;BME280;5097;43.260;27.812;2022-08-03T13:12:07;99987.84;;;29.62;43.12
10115;BME280;5097;43.260;27.812;2022-08-03T13:14:54;100005.25;;;29.61;43.34
10115;BME280;5097;43.260;27.812;2022-08-03T13:17:38;99998.94;;;29.80;43.12
10115;BME280;5097;43.260;27.812;2022-08-03T13:20:23;99996.78;;;30.29;42.17
10115;BME280;5097;43.260;27.812;2022-08-03T13:23:07;100008.78;;;30.73;41.03
10115;BME280;5097;43.260;27.812;2022-08-03T13:26:03;100005.94;;;30.55;41.13
10115;BME280;5097;43.260;27.812;2022-08-03T13:28:48;99999.47;;;30.42;41.54
10115;BME280;5097;43.260;27.812;2022-08-03T13:31:32;99989.38;;;30.50;41.14
10115;BME280;5097;43.260;27.812;2022-08-03T13:34:16;99999.59;;;29.89;42.32
10115;BME280;5097;43.260;27.812;2022-08-03T13:37:05;99984.72;;;29.65;42.36
10115;BME280;5097;43.260;27.812;2022-08-03T13:39:51;99983.47;;;30.01;41.42
10115;BME280;5097;43.260;27.812;2022-08-03T13:42:41;99989.06;;;30.71;40.38
10115;BME280;5097;43.260;27.812;2022-08-03T13:45:26;100007.63;;;30.56;40.83
10115;BME280;5097;43.260;27.812;2022-08-03T13:48:11;100007.81;;;30.61;40.62
10115;BME280;5097;43.260;27.812;2022-08-03T13:51:15;100000.50;;;30.48;40.50
10115;BME280;5097;43.260;27.812;2022-08-03T13:54:04;100001.88;;;29.72;41.50
10115;BME280;5097;43.260;27.812;2022-08-03T13:56:48;99999.19;;;30.64;39.87
10115;BME280;5097;43.260;27.812;2022-08-03T13:59:34;100004.06;;;31.58;38.38
10115;BME280;5097;43.260;27.812;2022-08-03T14:02:19;100017.50;;;31.85;38.18
10115;BME280;5097;43.260;27.812;2022-08-03T14:05:03;100018.03;;;32.37;37.40
10115;BME280;5097;43.260;27.812;2022-08-03T14:07:49;100020.28;;;32.03;37.61
10115;BME280;5097;43.260;27.812;2022-08-03T14:10:41;100028.19;;;31.86;37.61
10115;BME280;5097;43.260;27.812;2022-08-03T14:13:25;100011.56;;;31.12;38.83
10115;BME280;5097;43.260;27.812;2022-08-03T14:16:10;99995.91;;;30.35;40.54
10115;BME280;5097;43.260;27.812;2022-08-03T14:18:59;100028.47;;;31.21;39.31
10115;BME280;5097;43.260;27.812;2022-08-03T14:21:44;100026.88;;;31.06;38.75
10115;BME280;5097;43.260;27.812;2022-08-03T14:24:47;100028.09;;;31.42;37.83
10115;BME280;5097;43.260;27.812;2022-08-03T14:27:32;100028.94;;;32.00;36.51
10115;BME280;5097;43.260;27.812;2022-08-03T14:30:16;100038.31;;;31.86;37.10
10115;BME280;5097;43.260;27.812;2022-08-03T14:33:00;100034.19;;;31.45;37.34
10115;BME280;5097;43.260;27.812;2022-08-03T14:35:46;100022.66;;;31.17;38.26
10115;BME280;5097;43.260;27.812;2022-08-03T14:38:30;100022.41;;;31.19;38.52
10115;BME280;5097;43.260;27.812;2022-08-03T14:41:14;100025.38;;;31.42;37.64
10115;BME280;5097;43.260;27.812;2022-08-03T14:44:01;100036.13;;;30.60;38.20
10115;BME280;5097;43.260;27.812;2022-08-03T14:46:45;100031.56;;;31.31;37.63
10115;BME280;5097;43.260;27.812;2022-08-03T14:49:29;100027.34;;;32.11;35.65